createdAt,value
2018-04-30T00:01:10.376Z,0
2018-04-30T00:01:51.430Z,0
2018-04-30T00:02:31.504Z,0
2018-04-30T00:03:12.026Z,0
2018-04-30T00:03:53.026Z,0
2018-04-30T00:04:33.342Z,0
2018-04-30T00:05:13.969Z,0
2018-04-30T00:05:54.335Z,0
2018-04-30T00:06:35.232Z,0
2018-04-30T00:07:15.687Z,0
2018-04-30T00:07:56.681Z,0
2018-04-30T00:08:37.129Z,0
2018-04-30T00:09:19.079Z,0
2018-04-30T00:09:59.467Z,0
2018-04-30T00:10:40.339Z,0
2018-04-30T00:11:21.119Z,0
2018-04-30T00:12:02.009Z,0
2018-04-30T00:12:42.291Z,0
2018-04-30T00:13:24.908Z,0
2018-04-30T00:14:05.055Z,0
2018-04-30T00:14:45.495Z,0
2018-04-30T00:15:25.929Z,0
2018-04-30T00:16:06.492Z,0
2018-04-30T00:16:46.901Z,0
2018-04-30T00:17:27.313Z,0
2018-04-30T00:18:07.770Z,0
2018-04-30T00:18:48.233Z,0
2018-04-30T00:19:28.544Z,0
2018-04-30T00:20:09.190Z,0
2018-04-30T00:20:49.544Z,0
2018-04-30T00:21:30.199Z,0
2018-04-30T00:22:10.840Z,0
2018-04-30T00:22:51.596Z,0
2018-04-30T00:23:32.081Z,0
2018-04-30T00:24:12.550Z,0
2018-04-30T00:24:53.911Z,0
2018-04-30T00:25:34.649Z,0
2018-04-30T00:26:15.277Z,0
2018-04-30T00:26:55.511Z,0
2018-04-30T00:27:36.027Z,0
2018-04-30T00:28:16.581Z,0
2018-04-30T00:28:57.042Z,0
2018-04-30T00:33:12.872Z,0
2018-04-30T00:33:54.086Z,0
2018-04-30T00:34:34.362Z,0
2018-04-30T00:35:14.771Z,0
2018-04-30T00:35:55.468Z,0
2018-04-30T00:36:36.064Z,0
2018-04-30T00:37:16.436Z,0
2018-04-30T00:37:56.844Z,0
2018-04-30T00:38:37.669Z,0
2018-04-30T00:39:18.041Z,0
2018-04-30T00:39:58.389Z,0
2018-04-30T00:40:38.939Z,0
2018-04-30T00:41:19.438Z,0
2018-04-30T00:41:59.832Z,0
2018-04-30T00:42:40.480Z,0
2018-04-30T00:43:22.587Z,0
2018-04-30T00:44:04.085Z,0
2018-04-30T00:44:44.882Z,0
2018-04-30T00:45:24.918Z,0
2018-04-30T00:46:05.519Z,0
2018-04-30T00:46:46.116Z,0
2018-04-30T00:47:26.194Z,0
2018-04-30T00:48:06.601Z,0
2018-04-30T00:48:47.009Z,0
2018-04-30T00:49:27.379Z,0
2018-04-30T00:50:07.779Z,0
2018-04-30T00:50:48.185Z,0
2018-04-30T00:51:28.510Z,0
2018-04-30T00:52:08.940Z,0
2018-04-30T00:52:49.279Z,0
2018-04-30T00:53:29.763Z,0
2018-04-30T00:54:10.173Z,0
2018-04-30T00:54:50.529Z,0
2018-04-30T00:55:30.918Z,0
2018-04-30T00:56:11.317Z,0
2018-04-30T00:56:51.778Z,0
2018-04-30T00:57:32.108Z,0
2018-04-30T00:58:12.496Z,0
2018-04-30T00:58:52.895Z,0
2018-04-30T00:59:33.340Z,0
2018-04-30T01:00:13.757Z,0
2018-04-30T01:00:54.126Z,0
2018-04-30T01:01:34.633Z,0
2018-04-30T01:02:14.962Z,0
2018-04-30T01:02:55.336Z,0
2018-04-30T01:03:35.801Z,0
2018-04-30T01:04:16.271Z,0
2018-04-30T01:04:56.595Z,0
2018-04-30T01:05:37.090Z,0
2018-04-30T01:06:17.445Z,0
2018-04-30T01:06:57.904Z,0
2018-04-30T01:07:38.280Z,0
2018-04-30T01:08:18.727Z,0
2018-04-30T01:08:59.246Z,0
2018-04-30T01:09:39.658Z,0
2018-04-30T01:10:20.033Z,0
2018-04-30T01:11:00.450Z,0
2018-04-30T01:11:40.889Z,0
2018-04-30T01:12:21.310Z,0
2018-04-30T01:13:01.806Z,0
2018-04-30T01:13:42.410Z,0
2018-04-30T01:14:22.867Z,0
2018-04-30T01:15:04.596Z,0
2018-04-30T01:15:46.321Z,0
2018-04-30T01:16:26.672Z,0
2018-04-30T01:17:11.830Z,0
2018-04-30T01:17:52.737Z,0
2018-04-30T01:18:34.270Z,0
2018-04-30T01:19:18.181Z,0
2018-04-30T01:24:27.777Z,0
2018-04-30T01:25:09.226Z,0
2018-04-30T01:25:49.988Z,0
2018-04-30T01:26:32.381Z,0
2018-04-30T01:27:12.857Z,0
2018-04-30T01:27:53.431Z,0
2018-04-30T01:28:33.844Z,0
2018-04-30T01:29:14.204Z,0
2018-04-30T01:29:54.621Z,0
2018-04-30T01:30:35.164Z,0
2018-04-30T01:31:15.452Z,0
2018-04-30T01:31:55.848Z,0
2018-04-30T01:32:36.272Z,0
2018-04-30T01:33:17.067Z,0
2018-04-30T01:33:58.324Z,0
2018-04-30T01:34:38.223Z,0
2018-04-30T01:35:18.905Z,0
2018-04-30T01:35:59.936Z,0
2018-04-30T01:36:43.214Z,0
2018-04-30T01:37:25.575Z,0
2018-04-30T01:38:05.902Z,0
2018-04-30T01:38:46.551Z,0
2018-04-30T01:39:27.623Z,0
2018-04-30T01:40:08.994Z,0
2018-04-30T01:42:10.510Z,0
2018-04-30T01:45:55.706Z,0
2018-04-30T01:46:42.904Z,0
2018-04-30T01:47:29.634Z,0
2018-04-30T02:04:10.547Z,0
2018-04-30T02:04:52.555Z,0
2018-04-30T02:05:33.124Z,0
2018-04-30T02:06:13.436Z,0
2018-04-30T02:06:54.112Z,0
2018-04-30T02:07:34.599Z,0
2018-04-30T02:08:15.384Z,0
2018-04-30T02:08:55.842Z,0
2018-04-30T02:09:36.984Z,0
2018-04-30T02:10:17.848Z,0
2018-04-30T02:10:58.325Z,0
2018-04-30T02:11:41.406Z,0
2018-04-30T02:12:21.782Z,0
2018-04-30T02:13:03.848Z,0
2018-04-30T02:13:45.991Z,0
2018-04-30T02:14:27.313Z,0
2018-04-30T02:15:07.443Z,0
2018-04-30T02:15:48.016Z,0
2018-04-30T02:16:28.864Z,0
2018-04-30T02:17:11.636Z,0
2018-04-30T02:17:52.015Z,0
2018-04-30T02:18:32.631Z,0
2018-04-30T02:19:13.933Z,0
2018-04-30T02:19:55.481Z,0
2018-04-30T02:20:35.797Z,0
2018-04-30T02:21:16.750Z,0
2018-04-30T02:21:57.266Z,0
2018-04-30T02:22:38.613Z,0
2018-04-30T02:23:19.160Z,0
2018-04-30T02:23:59.857Z,0
2018-04-30T02:24:40.226Z,0
2018-04-30T02:25:21.088Z,0
2018-04-30T02:26:01.617Z,0
2018-04-30T02:26:41.979Z,0
2018-04-30T02:27:23.130Z,0
2018-04-30T02:28:03.528Z,0
2018-04-30T02:28:43.841Z,0
2018-04-30T02:29:24.508Z,0
2018-04-30T02:30:04.716Z,0
2018-04-30T02:30:45.265Z,0
2018-04-30T02:31:26.354Z,0
2018-04-30T02:32:10.539Z,0
2018-04-30T02:51:01.116Z,0
2018-04-30T02:51:41.766Z,0
2018-04-30T02:52:22.672Z,0
2018-04-30T02:53:03.037Z,0
2018-04-30T02:53:43.519Z,0
2018-04-30T02:54:24.271Z,0
2018-04-30T02:55:07.420Z,0
2018-04-30T02:55:55.655Z,0
2018-04-30T02:56:37.380Z,0
2018-04-30T02:57:22.011Z,0
2018-04-30T02:58:04.456Z,0
2018-04-30T02:58:46.033Z,0
2018-04-30T02:59:26.718Z,0
2018-04-30T03:00:09.758Z,0
2018-04-30T03:00:53.293Z,0
2018-04-30T03:01:34.166Z,0
2018-04-30T03:02:14.709Z,0
2018-04-30T03:02:56.491Z,0
2018-04-30T03:03:37.341Z,0
2018-04-30T03:04:18.177Z,0
2018-04-30T03:04:59.443Z,0
2018-04-30T03:05:41.806Z,0
2018-04-30T03:06:24.334Z,0
2018-04-30T03:07:05.602Z,0
2018-04-30T03:40:42.101Z,0
2018-04-30T03:57:56.300Z,0
2018-04-30T03:58:39.773Z,0
2018-04-30T03:59:20.322Z,0
2018-04-30T04:00:01.252Z,0
2018-04-30T04:00:42.419Z,0
2018-04-30T04:01:23.451Z,0
2018-04-30T04:02:04.158Z,4
2018-04-30T04:44:04.864Z,36
2018-04-30T04:44:48.526Z,32
2018-04-30T04:45:28.907Z,32
2018-04-30T04:46:10.040Z,32
2018-04-30T04:46:50.765Z,32
2018-04-30T04:47:31.000Z,36
2018-04-30T04:48:12.397Z,36
2018-04-30T04:48:52.255Z,32
2018-04-30T04:49:33.069Z,36
2018-04-30T04:50:13.514Z,32
2018-04-30T04:50:53.798Z,32
2018-04-30T04:51:34.141Z,36
2018-04-30T04:52:14.763Z,36
2018-04-30T04:52:55.143Z,40
2018-04-30T04:53:35.546Z,52
2018-04-30T04:54:16.042Z,56
2018-04-30T04:54:56.467Z,64
2018-04-30T04:55:37.308Z,68
2018-04-30T04:56:18.025Z,64
2018-04-30T04:56:58.475Z,64
2018-04-30T04:57:38.762Z,64
2018-04-30T04:58:19.245Z,60
2018-04-30T04:58:59.623Z,56
2018-04-30T04:59:40.868Z,56
2018-04-30T05:00:20.644Z,60
2018-04-30T05:01:01.110Z,56
2018-04-30T05:07:16.138Z,44
2018-04-30T05:08:05.181Z,44
2018-04-30T05:12:33.026Z,44
2018-04-30T05:13:20.624Z,44
2018-04-30T05:14:00.108Z,48
2018-04-30T05:14:40.449Z,52
2018-04-30T05:15:20.872Z,64
2018-04-30T05:16:02.514Z,72
2018-04-30T05:16:43.379Z,88
2018-04-30T05:17:29.389Z,100
2018-04-30T05:18:09.797Z,116
2018-04-30T05:18:50.560Z,128
2018-04-30T05:19:31.656Z,136
2018-04-30T05:20:12.057Z,136
2018-04-30T05:20:54.523Z,140
2018-04-30T05:21:35.654Z,140
2018-04-30T05:22:17.728Z,132
2018-04-30T05:22:57.471Z,128
2018-04-30T05:23:37.936Z,120
2018-04-30T05:24:18.347Z,116
2018-04-30T05:24:58.749Z,112
2018-04-30T05:29:03.741Z,128
2018-04-30T05:29:43.493Z,128
2018-04-30T05:30:23.883Z,120
2018-04-30T05:31:04.329Z,112
2018-04-30T05:31:44.761Z,104
2018-04-30T05:32:25.258Z,112
2018-04-30T05:33:05.493Z,120
2018-04-30T05:33:46.072Z,132
2018-04-30T05:34:31.227Z,140
2018-04-30T05:35:09.138Z,148
2018-04-30T05:35:49.499Z,164
2018-04-30T05:36:30.051Z,196
2018-04-30T05:37:10.572Z,236
2018-04-30T05:37:51.144Z,264
2018-04-30T05:38:31.661Z,280
2018-04-30T05:39:13.898Z,272
2018-04-30T05:39:54.232Z,248
2018-04-30T05:40:34.963Z,228
2018-04-30T05:41:15.624Z,208
2018-04-30T05:41:56.705Z,192
2018-04-30T05:42:37.199Z,176
2018-04-30T05:43:18.964Z,160
2018-04-30T05:43:58.798Z,144
2018-04-30T05:44:39.076Z,136
2018-04-30T05:45:19.561Z,132
2018-04-30T05:46:00.041Z,136
2018-04-30T05:46:40.816Z,136
2018-04-30T05:47:21.157Z,136
2018-04-30T05:48:01.418Z,144
2018-04-30T05:48:41.776Z,152
2018-04-30T05:49:22.659Z,156
2018-04-30T05:50:02.964Z,168
2018-04-30T05:50:44.494Z,168
2018-04-30T05:51:24.222Z,172
2018-04-30T05:52:04.646Z,160
2018-04-30T05:52:45.092Z,148
2018-04-30T05:53:25.439Z,136
2018-04-30T05:54:05.814Z,156
2018-04-30T05:54:47.701Z,164
2018-04-30T05:55:26.754Z,160
2018-04-30T05:56:07.219Z,152
2018-04-30T05:56:48.623Z,156
2018-04-30T05:57:29.173Z,156
2018-04-30T05:58:09.588Z,148
2018-04-30T05:58:51.328Z,132
2018-04-30T05:59:31.761Z,124
2018-04-30T06:00:12.865Z,128
2018-04-30T06:00:53.984Z,116
2018-04-30T06:01:34.452Z,108
2018-04-30T06:02:14.936Z,104
2018-04-30T06:02:55.317Z,108
2018-04-30T06:03:35.783Z,112
2018-04-30T06:04:16.265Z,112
2018-04-30T06:04:56.719Z,104
2018-04-30T06:05:37.070Z,120
2018-04-30T06:06:17.450Z,120
2018-04-30T06:06:57.799Z,136
2018-04-30T06:07:38.389Z,144
2018-04-30T06:08:18.827Z,164
2018-04-30T06:08:59.244Z,176
2018-04-30T06:09:39.706Z,180
2018-04-30T06:10:20.196Z,160
2018-04-30T06:11:00.825Z,148
2018-04-30T06:11:41.306Z,156
2018-04-30T06:12:22.575Z,172
2018-04-30T06:13:05.475Z,168
2018-04-30T06:13:46.816Z,140
2018-04-30T06:14:27.864Z,140
2018-04-30T06:15:08.266Z,156
2018-04-30T06:15:49.468Z,184
2018-04-30T06:16:34.238Z,264
2018-04-30T06:17:14.946Z,260
2018-04-30T06:17:57.285Z,248
2018-04-30T06:18:42.407Z,228
2018-04-30T06:19:23.145Z,180
2018-04-30T06:20:04.729Z,160
2018-04-30T06:20:45.273Z,156
2018-04-30T06:21:26.891Z,156
2018-04-30T06:22:07.789Z,156
2018-04-30T06:22:49.854Z,152
2018-04-30T06:23:30.317Z,148
2018-04-30T06:24:11.044Z,136
2018-04-30T06:24:52.047Z,132
2018-04-30T06:25:32.702Z,136
2018-04-30T06:26:13.339Z,136
2018-04-30T06:26:54.227Z,132
2018-04-30T06:27:35.961Z,132
2018-04-30T06:28:20.131Z,132
2018-04-30T06:29:00.766Z,128
2018-04-30T06:29:45.224Z,128
2018-04-30T06:30:25.803Z,132
2018-04-30T06:31:09.330Z,136
2018-04-30T06:31:50.861Z,140
2018-04-30T06:35:00.084Z,212
2018-04-30T06:43:34.441Z,664
2018-04-30T06:49:21.895Z,628
2018-04-30T06:50:02.109Z,604
2018-04-30T06:50:42.596Z,520
2018-04-30T06:51:24.753Z,456
2018-04-30T06:52:05.657Z,492
2018-04-30T06:52:46.562Z,452
2018-04-30T06:59:28.904Z,576
2018-04-30T07:01:23.979Z,584
2018-04-30T07:02:18.883Z,500
2018-04-30T07:04:13.814Z,380
2018-04-30T07:07:36.458Z,356
2018-04-30T07:08:16.883Z,324
2018-04-30T07:08:57.359Z,304
2018-04-30T07:09:38.907Z,292
2018-04-30T07:10:19.143Z,284
2018-04-30T07:10:59.681Z,292
2018-04-30T07:11:40.050Z,296
2018-04-30T07:12:20.549Z,304
2018-04-30T07:13:01.004Z,336
2018-04-30T07:13:41.954Z,300
2018-04-30T07:14:22.493Z,260
2018-04-30T07:15:02.858Z,232
2018-04-30T07:17:37.791Z,304
2018-04-30T07:18:17.943Z,308
2018-04-30T07:18:58.486Z,368
2018-04-30T07:19:38.817Z,436
2018-04-30T07:20:19.385Z,456
2018-04-30T07:21:00.103Z,492
2018-04-30T07:21:40.659Z,464
2018-04-30T07:22:21.010Z,484
2018-04-30T07:23:01.595Z,528
2018-04-30T07:23:42.233Z,592
2018-04-30T07:24:23.282Z,564
2018-04-30T07:25:03.698Z,492
2018-04-30T07:25:44.171Z,472
2018-04-30T07:26:24.746Z,444
2018-04-30T07:27:06.071Z,420
2018-04-30T07:27:46.508Z,392
2018-04-30T07:28:26.811Z,376
2018-04-30T07:29:07.415Z,376
2018-04-30T07:29:48.068Z,388
2018-04-30T07:30:28.407Z,428
2018-04-30T07:31:10.629Z,440
2018-04-30T07:31:51.212Z,556
2018-04-30T07:32:31.876Z,520
2018-04-30T07:33:13.002Z,580
2018-04-30T07:33:53.721Z,616
2018-04-30T07:34:34.328Z,692
2018-04-30T07:35:15.358Z,624
2018-04-30T07:35:57.665Z,584
2018-04-30T07:36:38.142Z,544
2018-04-30T07:37:19.265Z,552
2018-04-30T07:38:00.310Z,512
2018-04-30T07:38:40.828Z,540
2018-04-30T07:39:21.400Z,596
2018-04-30T07:40:02.493Z,660
2018-04-30T07:40:43.807Z,732
2018-04-30T07:41:23.928Z,868
2018-04-30T07:42:04.611Z,924
2018-04-30T07:42:45.013Z,860
2018-04-30T07:43:26.203Z,836
2018-04-30T07:44:06.667Z,852
2018-04-30T07:44:47.334Z,992
2018-04-30T07:45:28.313Z,1040
2018-04-30T07:46:09.367Z,972
2018-04-30T07:46:50.558Z,996
2018-04-30T07:47:31.654Z,900
2018-04-30T07:48:12.181Z,796
2018-04-30T07:48:52.699Z,768
2018-04-30T07:49:33.859Z,720
2018-04-30T07:50:14.375Z,680
2018-04-30T07:50:54.995Z,740
2018-04-30T07:51:35.939Z,800
2018-04-30T07:52:16.612Z,860
2018-04-30T07:52:57.047Z,816
2018-04-30T07:53:37.752Z,844
2018-04-30T07:54:18.424Z,812
2018-04-30T07:54:59.150Z,812
2018-04-30T07:55:40.115Z,872
2018-04-30T07:56:20.478Z,880
2018-04-30T07:57:03.145Z,940
2018-04-30T07:57:43.613Z,948
2018-04-30T07:58:24.206Z,988
2018-04-30T07:59:05.115Z,1056
2018-04-30T07:59:46.469Z,1104
2018-04-30T08:00:30.334Z,1044
2018-04-30T08:01:10.708Z,964
2018-04-30T08:01:51.877Z,908
2018-04-30T08:02:32.281Z,920
2018-04-30T08:03:13.004Z,928
2018-04-30T08:03:54.113Z,896
2018-04-30T08:04:36.232Z,880
2018-04-30T08:05:17.112Z,832
2018-04-30T08:05:57.845Z,680
2018-04-30T08:06:38.777Z,584
2018-04-30T08:07:19.189Z,548
2018-04-30T08:07:59.917Z,564
2018-04-30T08:08:40.258Z,608
2018-04-30T08:09:20.875Z,604
2018-04-30T08:10:01.872Z,608
2018-04-30T08:10:42.325Z,692
2018-04-30T08:11:23.149Z,828
2018-04-30T08:12:04.817Z,896
2018-04-30T08:12:44.566Z,836
2018-04-30T08:13:25.756Z,860
2018-04-30T08:14:08.509Z,828
2018-04-30T08:14:48.999Z,804
2018-04-30T08:15:30.301Z,792
2018-04-30T08:16:10.355Z,804
2018-04-30T08:16:50.997Z,888
2018-04-30T08:20:06.901Z,1020
2018-04-30T08:20:48.313Z,1036
2018-04-30T08:21:28.791Z,1024
2018-04-30T08:22:09.302Z,1000
2018-04-30T08:22:49.946Z,980
2018-04-30T08:23:30.567Z,964
2018-04-30T08:24:10.966Z,960
2018-04-30T08:24:51.346Z,956
2018-04-30T08:25:32.523Z,952
2018-04-30T08:26:12.787Z,952
2018-04-30T08:26:53.470Z,944
2018-04-30T08:27:33.731Z,916
2018-04-30T08:28:14.155Z,896
2018-04-30T08:28:55.204Z,896
2018-04-30T08:29:35.275Z,928
2018-04-30T08:30:15.793Z,960
2018-04-30T08:30:56.337Z,988
2018-04-30T08:31:37.039Z,1012
2018-04-30T08:32:18.050Z,1048
2018-04-30T08:32:58.351Z,1052
2018-04-30T08:33:38.961Z,972
2018-04-30T08:34:20.625Z,928
2018-04-30T08:35:00.979Z,952
2018-04-30T08:35:41.397Z,948
2018-04-30T08:36:22.253Z,860
2018-04-30T08:37:03.842Z,748
2018-04-30T08:37:44.418Z,720
2018-04-30T08:38:25.269Z,864
2018-04-30T08:39:06.156Z,872
2018-04-30T08:39:46.368Z,864
2018-04-30T08:40:27.718Z,800
2018-04-30T08:41:08.497Z,688
2018-04-30T08:41:50.511Z,684
2018-04-30T08:42:30.821Z,636
2018-04-30T08:43:11.502Z,608
2018-04-30T08:45:23.907Z,600
2018-04-30T08:46:15.792Z,604
2018-04-30T08:46:54.760Z,632
2018-04-30T08:47:34.845Z,808
2018-04-30T08:48:15.488Z,900
2018-04-30T08:48:56.009Z,864
2018-04-30T08:49:37.302Z,916
2018-04-30T08:50:17.890Z,1080
2018-04-30T08:50:58.883Z,996
2018-04-30T08:51:40.842Z,924
2018-04-30T08:52:21.320Z,892
2018-04-30T08:53:02.189Z,900
2018-04-30T08:53:42.556Z,840
2018-04-30T08:54:23.894Z,884
2018-04-30T08:55:04.568Z,888
2018-04-30T08:55:45.361Z,968
2018-04-30T08:56:27.181Z,816
2018-04-30T08:57:08.081Z,676
2018-04-30T08:57:47.906Z,592
2018-04-30T08:58:29.362Z,544
2018-04-30T08:59:09.724Z,540
2018-04-30T08:59:50.382Z,624
2018-04-30T09:00:31.352Z,720
2018-04-30T09:01:11.768Z,784
2018-04-30T09:01:52.487Z,976
2018-04-30T09:02:33.127Z,1172
2018-04-30T09:03:13.773Z,1208
2018-04-30T09:03:55.401Z,1140
2018-04-30T09:04:36.055Z,920
2018-04-30T09:05:16.754Z,800
2018-04-30T09:05:57.082Z,796
2018-04-30T09:06:37.547Z,824
2018-04-30T09:07:19.027Z,844
2018-04-30T09:08:01.396Z,808
2018-04-30T09:08:42.705Z,832
2018-04-30T09:09:24.712Z,840
2018-04-30T09:10:05.584Z,736
2018-04-30T09:10:47.710Z,672
2018-04-30T09:11:27.830Z,616
2018-04-30T09:12:08.248Z,580
2018-04-30T09:12:48.598Z,556
2018-04-30T09:13:29.050Z,564
2018-04-30T09:14:09.979Z,568
2018-04-30T09:14:51.005Z,608
2018-04-30T09:15:32.939Z,584
2018-04-30T09:16:13.349Z,624
2018-04-30T09:16:54.125Z,696
2018-04-30T09:17:34.673Z,656
2018-04-30T09:18:15.418Z,608
2018-04-30T09:18:55.709Z,588
2018-04-30T09:19:36.182Z,612
2018-04-30T09:20:17.021Z,588
2018-04-30T09:20:57.834Z,592
2018-04-30T09:21:37.750Z,700
2018-04-30T09:22:20.899Z,796
2018-04-30T09:23:01.345Z,892
2018-04-30T09:23:41.694Z,772
2018-04-30T09:24:22.286Z,728
2018-04-30T09:25:02.631Z,688
2018-04-30T09:25:43.031Z,772
2018-04-30T09:26:23.533Z,768
2018-04-30T09:27:05.276Z,772
2018-04-30T09:27:45.317Z,704
2018-04-30T09:28:26.448Z,592
2018-04-30T09:29:07.097Z,544
2018-04-30T09:29:48.192Z,536
2018-04-30T09:30:28.470Z,568
2018-04-30T09:31:23.816Z,644
2018-04-30T09:32:04.564Z,648
2018-04-30T09:32:45.392Z,680
2018-04-30T09:33:27.156Z,628
2018-04-30T09:34:07.646Z,600
2018-04-30T09:34:48.226Z,616
2018-04-30T09:35:28.624Z,648
2018-04-30T09:36:09.000Z,732
2018-04-30T09:36:50.481Z,812
2018-04-30T09:37:31.525Z,1004
2018-04-30T09:38:11.814Z,1120
2018-04-30T09:38:52.315Z,1272
2018-04-30T09:39:32.966Z,1180
2018-04-30T09:40:13.376Z,1036
2018-04-30T09:40:54.791Z,936
2018-04-30T09:41:35.100Z,960
2018-04-30T09:42:15.716Z,1212
2018-04-30T09:42:56.973Z,1312
2018-04-30T09:43:38.076Z,1488
2018-04-30T09:44:17.962Z,1744
2018-04-30T09:44:58.935Z,1924
2018-04-30T09:45:40.352Z,1996
2018-04-30T09:46:23.649Z,2356
2018-04-30T09:47:04.848Z,2716
2018-04-30T09:47:45.660Z,2916
2018-04-30T09:48:26.154Z,2712
2018-04-30T09:49:06.842Z,2708
2018-04-30T09:49:47.268Z,2804
2018-04-30T09:50:28.904Z,2684
2018-04-30T09:51:10.964Z,2192
2018-04-30T09:51:51.374Z,2316
2018-04-30T09:52:31.970Z,2344
2018-04-30T09:53:12.681Z,1940
2018-04-30T09:53:55.339Z,1628
2018-04-30T09:54:36.698Z,1428
2018-04-30T09:55:16.954Z,1340
2018-04-30T09:55:58.520Z,1360
2018-04-30T09:56:38.989Z,1104
2018-04-30T09:57:20.821Z,984
2018-04-30T09:59:44.705Z,812
2018-04-30T10:01:38.371Z,824
2018-04-30T10:02:18.589Z,772
2018-04-30T10:02:59.206Z,1016
2018-04-30T10:03:39.647Z,1036
2018-04-30T10:04:20.235Z,1108
2018-04-30T10:43:19.340Z,688
2018-04-30T10:43:59.680Z,684
2018-04-30T10:44:40.134Z,748
2018-04-30T10:45:21.316Z,772
2018-04-30T10:46:01.790Z,836
2018-04-30T10:46:43.146Z,932
2018-04-30T10:47:23.739Z,1004
2018-04-30T10:48:04.644Z,1032
2018-04-30T10:48:45.641Z,1072
2018-04-30T10:49:27.042Z,1116
2018-04-30T10:50:08.084Z,1056
2018-04-30T10:50:48.217Z,932
2018-04-30T10:51:29.503Z,828
2018-04-30T10:52:10.144Z,804
2018-04-30T10:52:50.725Z,764
2018-04-30T10:53:31.805Z,708
2018-04-30T10:54:12.266Z,652
2018-04-30T10:54:53.342Z,584
2018-04-30T10:55:34.042Z,608
2018-04-30T10:56:15.041Z,632
2018-04-30T10:56:56.818Z,604
2018-04-30T10:57:37.632Z,644
2018-04-30T10:58:18.198Z,712
2018-04-30T10:58:58.758Z,856
2018-04-30T10:59:40.175Z,960
2018-04-30T11:00:20.721Z,968
2018-04-30T11:01:01.611Z,944
2018-04-30T11:01:42.121Z,816
2018-04-30T11:02:22.500Z,708
2018-04-30T11:03:03.256Z,716
2018-04-30T11:03:43.616Z,796
2018-04-30T11:04:24.450Z,840
2018-04-30T11:05:05.178Z,864
2018-04-30T11:05:45.349Z,992
2018-04-30T11:06:27.781Z,1216
2018-04-30T11:07:08.642Z,1468
2018-04-30T11:07:49.171Z,1568
2018-04-30T11:08:29.511Z,1512
2018-04-30T11:09:11.309Z,1864
2018-04-30T11:09:52.489Z,1976
2018-04-30T11:10:33.546Z,1932
2018-04-30T11:11:14.288Z,2080
2018-04-30T11:11:55.172Z,2396
2018-04-30T11:12:35.885Z,2784
2018-04-30T11:13:16.332Z,2916
2018-04-30T11:15:57.571Z,2500
2018-04-30T11:16:41.379Z,2384
2018-04-30T11:17:22.776Z,2332
2018-04-30T11:18:03.916Z,2484
2018-04-30T11:18:44.246Z,2204
2018-04-30T11:19:24.941Z,2072
2018-04-30T11:20:05.950Z,2100
2018-04-30T11:20:46.938Z,2060
2018-04-30T11:21:28.692Z,2004
2018-04-30T11:22:08.626Z,1880
2018-04-30T11:22:49.636Z,1880
2018-04-30T11:23:32.849Z,2120
2018-04-30T11:24:14.589Z,2152
2018-04-30T11:24:55.082Z,2228
2018-04-30T11:25:38.665Z,2260
2018-04-30T11:26:18.199Z,2264
2018-04-30T11:26:59.032Z,1872
2018-04-30T11:27:40.123Z,1604
2018-04-30T11:28:20.548Z,1548
2018-04-30T11:29:01.912Z,1628
2018-04-30T11:29:42.305Z,1400
2018-04-30T11:30:23.024Z,1260
2018-04-30T11:31:03.535Z,1116
2018-04-30T11:31:44.238Z,1184
2018-04-30T11:32:25.600Z,1192
2018-04-30T11:33:06.368Z,1228
2018-04-30T11:33:48.768Z,1208
2018-04-30T11:34:29.386Z,1496
2018-04-30T11:35:09.974Z,1736
2018-04-30T11:35:51.758Z,1756
2018-04-30T11:36:31.555Z,1756
2018-04-30T11:38:42.953Z,1396
2018-04-30T11:44:43.212Z,2920
2018-04-30T11:45:23.733Z,2708
2018-04-30T11:46:04.767Z,2580
2018-04-30T11:46:45.257Z,2456
2018-04-30T11:47:27.046Z,2432
2018-04-30T11:48:07.276Z,2504
2018-04-30T11:48:48.096Z,2548
2018-04-30T11:49:28.864Z,2456
2018-04-30T11:50:09.413Z,2244
2018-04-30T11:50:50.252Z,1940
2018-04-30T11:51:31.229Z,1660
2018-04-30T11:52:11.700Z,1528
2018-04-30T11:52:52.312Z,1460
2018-04-30T11:53:32.748Z,1356
2018-04-30T11:54:13.735Z,1136
2018-04-30T11:54:54.591Z,1040
2018-04-30T11:55:35.040Z,992
2018-04-30T11:56:16.886Z,1168
2018-04-30T11:56:57.880Z,1348
2018-04-30T11:57:38.474Z,1280
2018-04-30T11:58:18.979Z,1036
2018-04-30T11:59:02.978Z,832
2018-04-30T11:59:43.635Z,716
2018-04-30T12:00:24.977Z,740
2018-04-30T12:01:05.075Z,896
2018-04-30T12:01:46.597Z,896
2018-04-30T12:02:28.246Z,856
2018-04-30T12:03:09.116Z,844
2018-04-30T12:03:49.643Z,788
2018-04-30T12:04:30.553Z,788
2018-04-30T12:05:11.344Z,736
2018-04-30T12:05:52.092Z,740
2018-04-30T12:06:32.984Z,840
2018-04-30T12:07:14.156Z,1024
2018-04-30T12:07:55.189Z,976
2018-04-30T12:08:35.280Z,1268
2018-04-30T12:09:15.852Z,1084
2018-04-30T12:09:57.283Z,972
2018-04-30T12:10:38.159Z,888
2018-04-30T12:11:18.770Z,1084
2018-04-30T12:11:59.936Z,956
2018-04-30T12:12:43.114Z,688
2018-04-30T12:13:26.959Z,540
2018-04-30T12:14:07.524Z,484
2018-04-30T12:14:48.569Z,456
2018-04-30T12:15:29.122Z,444
2018-04-30T12:16:09.668Z,512
2018-04-30T12:16:50.095Z,540
2018-04-30T12:17:30.558Z,564
2018-04-30T12:18:11.164Z,596
2018-04-30T12:18:51.672Z,608
2018-04-30T12:19:32.201Z,596
2018-04-30T12:20:12.662Z,548
2018-04-30T12:20:53.194Z,540
2018-04-30T12:21:33.557Z,528
2018-04-30T12:22:14.081Z,728
2018-04-30T12:22:54.639Z,1068
2018-04-30T12:23:35.195Z,1272
2018-04-30T12:24:15.886Z,1164
2018-04-30T12:24:56.631Z,1052
2018-04-30T12:25:37.646Z,864
2018-04-30T12:26:18.527Z,820
2018-04-30T12:26:58.955Z,836
2018-04-30T12:27:39.521Z,844
2018-04-30T12:28:19.906Z,912
2018-04-30T12:29:03.652Z,1000
2018-04-30T12:29:44.125Z,1028
2018-04-30T12:30:24.606Z,1056
2018-04-30T12:31:05.053Z,1168
2018-04-30T12:31:45.674Z,1208
2018-04-30T12:32:26.043Z,1268
2018-04-30T12:33:07.132Z,1464
2018-04-30T12:33:47.267Z,2084
2018-04-30T12:34:27.715Z,2364
2018-04-30T12:35:08.344Z,1904
2018-04-30T12:35:48.924Z,1712
2018-04-30T12:36:29.290Z,1588
2018-04-30T12:37:09.965Z,1464
2018-04-30T12:37:50.579Z,1328
2018-04-30T12:38:31.375Z,1452
2018-04-30T12:39:11.649Z,1440
2018-04-30T12:39:52.432Z,1476
2018-04-30T12:40:33.005Z,1404
2018-04-30T12:41:13.469Z,1164
2018-04-30T12:41:53.945Z,1064
2018-04-30T12:42:34.402Z,988
2018-04-30T12:43:14.958Z,904
2018-04-30T12:43:55.890Z,796
2018-04-30T12:44:36.466Z,856
2018-04-30T12:45:16.938Z,984
2018-04-30T12:45:57.326Z,1072
2018-04-30T12:46:37.815Z,1232
2018-04-30T12:47:18.465Z,1464
2018-04-30T12:47:58.900Z,1780
2018-04-30T12:48:39.425Z,2052
2018-04-30T12:49:20.022Z,2512
2018-04-30T12:50:00.759Z,2664
2018-04-30T12:50:41.641Z,2912
2018-04-30T12:51:22.335Z,3060
2018-04-30T12:52:02.739Z,2908
2018-04-30T12:52:43.383Z,2488
2018-04-30T12:53:23.937Z,2072
2018-04-30T12:54:04.511Z,1924
2018-04-30T12:54:45.413Z,1956
2018-04-30T12:55:25.747Z,2132
2018-04-30T12:56:06.750Z,2172
2018-04-30T12:56:47.401Z,1980
2018-04-30T12:57:27.862Z,1672
2018-04-30T12:58:08.396Z,1520
2018-04-30T12:58:49.188Z,1452
2018-04-30T12:59:29.366Z,1420
2018-04-30T13:00:09.942Z,1308
2018-04-30T13:00:50.438Z,1288
2018-04-30T13:01:30.824Z,1296
2018-04-30T13:02:11.269Z,1408
2018-04-30T13:02:51.781Z,1476
2018-04-30T13:03:32.236Z,1524
2018-04-30T13:04:12.741Z,1524
2018-04-30T13:04:53.266Z,1544
2018-04-30T13:05:33.680Z,1492
2018-04-30T13:06:14.089Z,1516
2018-04-30T13:06:54.556Z,1556
2018-04-30T13:07:35.047Z,1700
2018-04-30T13:08:18.340Z,1924
2018-04-30T13:08:58.963Z,2460
2018-04-30T13:09:39.399Z,2512
2018-04-30T13:10:20.596Z,2172
2018-04-30T13:11:00.823Z,2232
2018-04-30T13:11:41.248Z,2260
2018-04-30T13:12:21.902Z,2688
2018-04-30T13:13:02.611Z,2968
2018-04-30T13:13:43.166Z,2796
2018-04-30T13:14:23.651Z,3000
2018-04-30T13:15:04.004Z,2796
2018-04-30T13:15:44.764Z,2460
2018-04-30T13:16:25.181Z,2656
2018-04-30T13:17:05.776Z,2368
2018-04-30T13:17:46.314Z,2284
2018-04-30T13:18:26.769Z,2036
2018-04-30T13:19:07.247Z,1884
2018-04-30T13:19:47.954Z,1836
2018-04-30T13:20:29.236Z,1808
2018-04-30T13:21:09.270Z,1800
2018-04-30T13:21:49.554Z,1776
2018-04-30T13:22:30.011Z,1784
2018-04-30T13:23:10.665Z,1788
2018-04-30T13:23:51.294Z,1800